createdAt,value
2019-02-25T00:02:08.610Z,14.47
2019-02-25T00:04:40.305Z,21.60
2019-02-25T00:07:12.091Z,16.43
2019-02-25T00:09:43.797Z,17.93
2019-02-25T00:12:15.487Z,15.87
2019-02-25T00:14:47.183Z,16.93
2019-02-25T00:17:18.933Z,15.10
2019-02-25T00:19:50.686Z,15.80
2019-02-25T00:22:22.433Z,15.30
2019-02-25T00:24:54.185Z,13.50
2019-02-25T00:27:25.939Z,14.50
2019-02-25T00:29:57.615Z,18.13
2019-02-25T00:32:29.335Z,20.07
2019-02-25T00:35:01.101Z,14.07
2019-02-25T00:37:32.855Z,14.07
2019-02-25T00:40:04.783Z,14.83
2019-02-25T00:42:36.450Z,15.37
2019-02-25T00:45:08.398Z,18.03
2019-02-25T00:47:40.130Z,22.60
2019-02-25T00:50:13.717Z,16.10
2019-02-25T00:52:45.367Z,16.10
2019-02-25T00:55:17.495Z,20.03
2019-02-25T00:57:49.217Z,17.30
2019-02-25T01:00:21.336Z,11.80
2019-02-25T01:02:53.061Z,15.87
2019-02-25T01:05:25.348Z,16.00
2019-02-25T01:07:57.022Z,13.53
2019-02-25T01:10:28.682Z,14.70
2019-02-25T01:13:00.370Z,19.30
2019-02-25T01:15:32.025Z,12.10
2019-02-25T01:18:03.724Z,15.57
2019-02-25T01:20:35.400Z,12.53
2019-02-25T01:23:07.158Z,16.57
2019-02-25T01:25:38.844Z,19.17
2019-02-25T01:28:10.546Z,15.93
2019-02-25T01:30:42.278Z,16.20
2019-02-25T01:33:14.044Z,12.90
2019-02-25T01:35:45.704Z,13.50
2019-02-25T01:38:17.415Z,20.07
2019-02-25T01:40:49.077Z,16.93
2019-02-25T01:43:20.750Z,20.50
2019-02-25T01:45:52.499Z,21.10
2019-02-25T01:48:24.270Z,17.90
2019-02-25T01:50:55.994Z,11.60
2019-02-25T01:53:27.781Z,14.50
2019-02-25T01:55:59.561Z,16.40
2019-02-25T01:58:31.262Z,15.87
2019-02-25T02:01:02.929Z,20.33
2019-02-25T02:03:34.616Z,18.60
2019-02-25T02:06:06.310Z,15.47
2019-02-25T02:08:38.026Z,16.77
2019-02-25T02:11:09.725Z,12.80
2019-02-25T02:13:41.506Z,15.90
2019-02-25T02:16:13.224Z,12.80
2019-02-25T02:18:45.002Z,18.93
2019-02-25T02:21:16.710Z,17.97
2019-02-25T02:23:48.476Z,14.37
2019-02-25T02:26:21.128Z,17.60
2019-02-25T02:28:53.081Z,15.67
2019-02-25T02:31:24.787Z,15.47
2019-02-25T02:33:56.505Z,15.97
2019-02-25T02:36:28.173Z,14.10
2019-02-25T02:38:59.921Z,15.37
2019-02-25T02:41:54.820Z,18.80
2019-02-25T02:44:26.500Z,21.53
2019-02-25T02:47:25.481Z,13.77
2019-02-25T02:49:57.256Z,13.40
2019-02-25T02:52:28.975Z,8.83
2019-02-25T02:55:00.667Z,18.83
2019-02-25T02:57:32.327Z,16.10
2019-02-25T03:00:05.216Z,19.33
2019-02-25T03:02:36.982Z,15.37
2019-02-25T03:05:10.670Z,15.60
2019-02-25T03:07:42.437Z,20.13
2019-02-25T03:10:16.157Z,16.30
2019-02-25T03:12:47.976Z,18.33
2019-02-25T03:15:21.310Z,16.27
2019-02-25T03:17:52.951Z,15.47
2019-02-25T03:20:24.698Z,14.70
2019-02-25T03:22:56.457Z,21.20
2019-02-25T03:25:28.221Z,16.67
2019-02-25T03:27:59.965Z,18.63
2019-02-25T03:30:31.687Z,15.70
2019-02-25T03:33:03.487Z,14.37
2019-02-25T03:35:35.313Z,18.07
2019-02-25T03:38:07.029Z,19.57
2019-02-25T03:40:38.748Z,19.43
2019-02-25T03:43:10.424Z,16.70
2019-02-25T03:45:42.191Z,17.80
2019-02-25T03:48:13.864Z,20.73
2019-02-25T03:50:45.630Z,20.10
2019-02-25T03:53:17.405Z,18.73
2019-02-25T03:55:49.311Z,18.43
2019-02-25T03:58:21.052Z,19.23
2019-02-25T04:00:52.790Z,16.00
2019-02-25T04:03:24.500Z,18.23
2019-02-25T04:05:56.329Z,18.53
2019-02-25T04:08:28.033Z,16.23
2019-02-25T04:10:59.785Z,19.67
2019-02-25T04:13:31.540Z,16.83
2019-02-25T04:16:03.377Z,18.10
2019-02-25T04:18:35.215Z,19.13
2019-02-25T04:21:06.941Z,22.10
2019-02-25T04:23:38.692Z,22.43
2019-02-25T04:26:10.469Z,17.17
2019-02-25T04:28:42.222Z,14.90
2019-02-25T04:31:13.904Z,20.27
2019-02-25T04:33:45.582Z,16.67
2019-02-25T04:36:17.236Z,15.80
2019-02-25T04:38:48.934Z,16.90
2019-02-25T04:41:20.711Z,19.37
2019-02-25T04:43:52.410Z,20.73
2019-02-25T04:46:25.294Z,16.50
2019-02-25T04:48:56.955Z,18.47
2019-02-25T04:51:28.637Z,20.53
2019-02-25T04:54:00.320Z,19.77
2019-02-25T04:56:32.202Z,17.67
2019-02-25T04:59:03.951Z,14.87
2019-02-25T05:01:35.711Z,17.57
2019-02-25T05:04:07.412Z,17.17
2019-02-25T05:06:39.150Z,20.33
2019-02-25T05:09:10.812Z,19.63
2019-02-25T05:11:42.694Z,19.80
2019-02-25T05:14:14.345Z,19.57
2019-02-25T05:16:46.152Z,18.30
2019-02-25T05:19:17.962Z,20.13
2019-02-25T05:21:49.682Z,19.83
2019-02-25T05:24:21.472Z,21.33
2019-02-25T05:26:53.239Z,21.70
2019-02-25T05:29:25.013Z,17.00
2019-02-25T05:31:56.725Z,18.23
2019-02-25T05:34:28.546Z,16.23
2019-02-25T05:37:00.317Z,18.83
2019-02-25T05:39:32.043Z,20.43
2019-02-25T05:42:03.837Z,21.30
2019-02-25T05:44:35.619Z,17.30
2019-02-25T05:47:07.390Z,21.40
2019-02-25T05:49:39.104Z,15.23
2019-02-25T05:52:10.919Z,17.97
2019-02-25T05:54:42.695Z,19.40
2019-02-25T05:57:14.401Z,17.47
2019-02-25T05:59:46.120Z,21.70
2019-02-25T06:02:17.904Z,17.27
2019-02-25T06:04:49.583Z,22.23
2019-02-25T06:07:21.307Z,26.03
2019-02-25T06:09:53.089Z,21.53
2019-02-25T06:12:24.887Z,22.20
2019-02-25T06:14:56.587Z,16.47
2019-02-25T06:17:28.231Z,22.03
2019-02-25T06:19:59.972Z,15.53
2019-02-25T06:22:31.721Z,18.30
2019-02-25T06:25:03.447Z,20.70
2019-02-25T06:27:35.214Z,24.63
2019-02-25T06:30:08.234Z,18.37
2019-02-25T06:32:39.994Z,18.67
2019-02-25T06:35:11.851Z,24.53
2019-02-25T06:37:43.589Z,20.27
2019-02-25T06:40:16.048Z,26.00
2019-02-25T06:42:47.995Z,19.63
2019-02-25T06:45:20.041Z,17.80
2019-02-25T06:47:51.805Z,16.10
2019-02-25T06:50:23.583Z,18.00
2019-02-25T06:52:55.316Z,18.67
2019-02-25T06:55:27.063Z,23.37
2019-02-25T06:57:58.783Z,20.37
2019-02-25T07:00:30.540Z,22.03
2019-02-25T07:03:02.266Z,21.57
2019-02-25T07:05:51.876Z,24.27
2019-02-25T07:09:01.393Z,20.87
2019-02-25T07:11:44.825Z,24.77
2019-02-25T07:14:35.571Z,19.17
2019-02-25T07:17:26.300Z,20.17
2019-02-25T07:20:10.576Z,18.63
2019-02-25T07:22:51.158Z,20.20
2019-02-25T07:25:38.881Z,27.50
2019-02-25T07:28:20.743Z,18.60
2019-02-25T07:31:10.578Z,21.00
2019-02-25T07:34:00.757Z,23.30
2019-02-25T07:36:54.246Z,21.03
2019-02-25T07:39:44.032Z,31.23
2019-02-25T07:42:44.832Z,25.90
2019-02-25T07:45:35.590Z,24.20
2019-02-25T07:48:25.846Z,19.47
2019-02-25T07:51:03.595Z,21.53
2019-02-25T07:53:40.710Z,25.55
2019-02-25T07:56:23.329Z,22.05
2019-02-25T07:59:13.320Z,26.93
2019-02-25T08:02:02.891Z,26.05
2019-02-25T08:04:57.402Z,17.70
2019-02-25T08:07:47.142Z,20.85
2019-02-25T08:10:41.048Z,27.93
2019-02-25T08:13:30.616Z,24.50
2019-02-25T08:16:28.505Z,26.57
2019-02-25T08:19:18.149Z,24.70
2019-02-25T08:22:07.966Z,21.70
2019-02-25T08:24:46.514Z,23.98
2019-02-25T08:27:28.359Z,16.97
2019-02-25T08:30:19.061Z,15.95
2019-02-25T08:33:19.089Z,23.02
2019-02-25T08:36:37.594Z,25.68
2019-02-25T08:39:18.100Z,28.57
2019-02-25T08:42:17.479Z,26.20
2019-02-25T08:45:02.025Z,29.05
2019-02-25T08:47:42.127Z,24.92
2019-02-25T08:50:14.405Z,32.42
2019-02-25T08:52:46.115Z,22.52
2019-02-25T08:55:17.942Z,26.70
2019-02-25T08:57:49.664Z,28.98
2019-02-25T09:00:21.424Z,32.53
2019-02-25T09:02:53.157Z,32.48
2019-02-25T09:05:24.869Z,38.23
2019-02-25T09:07:56.583Z,28.62
2019-02-25T09:10:28.284Z,25.35
2019-02-25T09:13:00.016Z,27.42
2019-02-25T09:15:32.517Z,28.07
2019-02-25T09:18:07.641Z,29.80
2019-02-25T09:20:39.439Z,30.88
2019-02-25T09:23:11.275Z,26.42
2019-02-25T09:25:43.066Z,20.77
2019-02-25T09:28:14.820Z,17.87
2019-02-25T09:30:46.524Z,21.12
2019-02-25T09:33:18.222Z,26.12
2019-02-25T09:35:50.068Z,21.12
2019-02-25T09:38:23.581Z,19.05
2019-02-25T09:40:55.185Z,17.82
2019-02-25T09:43:26.946Z,16.67
2019-02-25T09:45:58.703Z,20.62
2019-02-25T09:48:30.390Z,15.35
2019-02-25T09:51:02.164Z,15.43
2019-02-25T09:53:33.873Z,22.25
2019-02-25T09:56:05.581Z,14.93
2019-02-25T09:58:37.272Z,21.90
2019-02-25T10:01:09.093Z,18.55
2019-02-25T10:03:41.165Z,15.72
2019-02-25T10:06:13.056Z,22.13
2019-02-25T10:08:46.522Z,21.45
2019-02-25T10:11:18.455Z,18.60
2019-02-25T10:13:51.767Z,22.52
2019-02-25T10:16:23.864Z,23.07
2019-02-25T10:18:55.653Z,12.45
2019-02-25T10:21:27.462Z,18.07
2019-02-25T10:23:59.282Z,16.82
2019-02-25T10:26:31.082Z,20.68
2019-02-25T10:29:02.864Z,18.67
2019-02-25T10:31:34.597Z,16.02
2019-02-25T10:34:07.680Z,16.30
2019-02-25T10:36:39.510Z,18.90
2019-02-25T10:39:15.527Z,19.17
2019-02-25T10:41:47.952Z,18.17
2019-02-25T10:44:20.262Z,20.62
2019-02-25T10:46:51.916Z,25.35
2019-02-25T10:49:24.502Z,27.37
2019-02-25T10:51:57.142Z,32.75
2019-02-25T10:54:28.900Z,36.68
2019-02-25T10:57:04.079Z,31.73
2019-02-25T10:59:36.898Z,26.90
2019-02-25T11:02:11.062Z,35.68
2019-02-25T11:04:42.718Z,26.27
2019-02-25T11:07:14.485Z,22.67
2019-02-25T11:10:08.264Z,24.47
2019-02-25T11:12:40.550Z,17.23
2019-02-25T11:15:14.234Z,20.97
2019-02-25T11:17:47.678Z,28.83
2019-02-25T11:20:20.564Z,24.92
2019-02-25T11:22:52.335Z,18.95
2019-02-25T11:25:26.313Z,20.15
2019-02-25T11:27:59.615Z,20.08
2019-02-25T11:30:31.329Z,27.07
2019-02-25T11:33:04.240Z,19.27
2019-02-25T11:35:36.629Z,24.30
2019-02-25T11:38:09.419Z,16.67
2019-02-25T11:40:41.278Z,17.27
2019-02-25T11:43:16.620Z,20.85
2019-02-25T11:45:47.596Z,20.32
2019-02-25T11:48:19.318Z,16.45
2019-02-25T11:50:51.121Z,16.57
2019-02-25T11:53:22.949Z,16.97
2019-02-25T11:55:54.840Z,16.40
2019-02-25T11:58:26.588Z,15.45
2019-02-25T12:00:58.411Z,14.60
2019-02-25T12:03:30.103Z,12.85
2019-02-25T12:06:01.870Z,10.72
2019-02-25T12:08:33.569Z,8.05
2019-02-25T12:11:05.255Z,10.15
2019-02-25T12:13:37.070Z,9.45
2019-02-25T12:16:08.849Z,11.90
2019-02-25T12:18:40.619Z,6.80
2019-02-25T12:21:12.309Z,16.90
2019-02-25T12:23:44.009Z,11.25
2019-02-25T12:26:15.746Z,16.67
2019-02-25T12:28:47.577Z,8.08
2019-02-25T12:31:19.291Z,14.68
2019-02-25T12:33:51.025Z,19.50
2019-02-25T12:36:22.757Z,19.65
2019-02-25T12:38:54.461Z,13.55
2019-02-25T12:41:27.424Z,9.13
2019-02-25T12:43:59.269Z,8.80
2019-02-25T12:46:31.047Z,9.58
2019-02-25T12:49:02.762Z,13.78
2019-02-25T12:51:34.558Z,10.82
2019-02-25T12:54:06.257Z,11.97
2019-02-25T12:56:38.037Z,12.23
2019-02-25T12:59:09.787Z,13.38
2019-02-25T13:01:41.491Z,10.55
2019-02-25T13:04:13.192Z,8.40
2019-02-25T13:06:45.000Z,9.80
2019-02-25T13:09:16.747Z,10.03
2019-02-25T13:11:48.525Z,7.80
2019-02-25T13:14:20.238Z,11.93
2019-02-25T13:16:52.064Z,12.03
2019-02-25T13:19:23.802Z,13.55
2019-02-25T13:21:55.652Z,11.08
2019-02-25T13:24:28.440Z,14.25
2019-02-25T13:27:01.141Z,9.98
2019-02-25T13:29:34.252Z,9.63
2019-02-25T13:32:06.051Z,10.80
2019-02-25T13:34:37.933Z,19.10
2019-02-25T13:37:09.938Z,12.50
2019-02-25T13:39:41.752Z,10.72
2019-02-25T13:42:13.514Z,11.12
2019-02-25T13:44:45.450Z,10.88
2019-02-25T13:47:17.291Z,9.65
2019-02-25T13:49:49.101Z,12.70
2019-02-25T13:52:20.956Z,10.43
2019-02-25T13:54:52.812Z,9.88
2019-02-25T13:57:25.000Z,12.18
2019-02-25T14:02:29.384Z,20.65
2019-02-25T14:05:03.735Z,13.20
2019-02-25T14:08:04.620Z,14.13
2019-02-25T14:21:23.211Z,14.53
2019-02-25T14:23:55.142Z,11.68
2019-02-25T14:26:37.475Z,12.15
2019-02-25T14:29:26.581Z,11.45
2019-02-25T14:32:27.826Z,12.05
2019-02-25T14:34:59.761Z,11.80
2019-02-25T14:38:10.907Z,10.32
2019-02-25T14:40:33.394Z,17.12
2019-02-25T14:43:51.054Z,14.10
2019-02-25T14:46:22.628Z,10.78
2019-02-25T14:49:00.431Z,11.10
2019-02-25T14:51:32.372Z,14.70
2019-02-25T14:54:04.494Z,11.85
2019-02-25T14:56:36.686Z,17.12
2019-02-25T14:59:12.566Z,15.23
2019-02-25T15:01:42.300Z,12.00
2019-02-25T15:04:14.218Z,19.67
2019-02-25T15:06:49.259Z,12.15
2019-02-25T15:09:21.108Z,8.28
2019-02-25T15:11:59.786Z,10.32
2019-02-25T15:15:16.749Z,11.90
2019-02-25T15:17:58.724Z,14.80
2019-02-25T15:20:51.518Z,9.93
2019-02-25T15:23:29.681Z,12.95
2019-02-25T15:26:25.267Z,14.25
2019-02-25T15:29:15.622Z,13.62
2019-02-25T15:31:54.746Z,11.88
2019-02-25T15:48:39.368Z,12.65
2019-02-25T16:03:29.337Z,10.82
2019-02-25T16:10:25.760Z,7.97
2019-02-25T16:13:37.743Z,12.23
2019-02-25T16:20:08.943Z,15.20
2019-02-25T16:23:40.268Z,12.30
2019-02-25T16:30:14.826Z,10.08
2019-02-25T16:33:17.650Z,7.47
2019-02-25T16:36:55.806Z,9.15
2019-02-25T16:40:05.411Z,8.25
2019-02-25T16:47:11.918Z,10.50
2019-02-25T16:51:02.310Z,9.48
2019-02-25T16:57:33.682Z,14.63
2019-02-25T16:59:53.537Z,7.65
2019-02-25T17:03:06.568Z,10.30
2019-02-25T17:05:49.877Z,18.75
2019-02-25T17:09:13.999Z,19.37
2019-02-25T17:12:18.883Z,21.52
2019-02-25T17:15:36.304Z,18.85
2019-02-25T17:18:20.344Z,22.98
2019-02-25T17:21:43.726Z,23.20
2019-02-25T17:24:58.022Z,30.05
2019-02-25T17:30:49.438Z,24.95
2019-02-25T17:33:42.694Z,21.55
2019-02-25T17:36:58.428Z,23.18
2019-02-25T17:39:31.192Z,23.70
2019-02-25T17:42:05.586Z,22.77
2019-02-25T17:44:38.715Z,23.30
2019-02-25T17:47:11.437Z,24.70
2019-02-25T17:49:44.174Z,22.75
2019-02-25T17:52:18.426Z,19.50
2019-02-25T17:54:49.891Z,22.67
2019-02-25T17:57:21.881Z,27.05
2019-02-25T17:59:55.222Z,21.05
2019-02-25T18:02:27.358Z,23.20
2019-02-25T18:04:59.160Z,27.77
2019-02-25T18:07:31.230Z,20.10
2019-02-25T18:10:05.183Z,22.58
2019-02-25T18:12:38.940Z,30.10
2019-02-25T18:15:13.872Z,31.80
2019-02-25T18:17:47.114Z,20.17
2019-02-25T18:20:21.379Z,23.40
2019-02-25T18:22:52.698Z,25.30
2019-02-25T18:25:24.589Z,20.67
2019-02-25T18:27:56.482Z,21.55
2019-02-25T18:30:30.107Z,18.27
2019-02-25T18:33:05.033Z,24.55
2019-02-25T18:35:36.816Z,14.93
2019-02-25T18:38:09.776Z,17.82
2019-02-25T18:40:44.088Z,18.62
2019-02-25T18:43:15.161Z,36.15
2019-02-25T18:45:47.043Z,22.35
2019-02-25T18:48:20.667Z,24.85
2019-02-25T18:50:55.138Z,28.77
2019-02-25T18:53:27.065Z,29.03
2019-02-25T18:55:58.999Z,22.58
2019-02-25T18:58:31.563Z,24.75
2019-02-25T19:01:04.351Z,20.40
2019-02-25T19:03:36.238Z,18.98
2019-02-25T19:06:08.185Z,21.50
2019-02-25T19:08:43.234Z,18.13
2019-02-25T19:11:15.084Z,24.63
2019-02-25T19:13:48.026Z,25.03
2019-02-25T19:16:21.901Z,23.30
2019-02-25T19:18:54.041Z,26.27
2019-02-25T19:21:27.520Z,21.47
2019-02-25T19:23:59.350Z,19.97
2019-02-25T19:26:31.152Z,23.13
2019-02-25T19:29:03.027Z,23.32
2019-02-25T19:31:34.905Z,20.43
2019-02-25T19:34:06.998Z,21.33
2019-02-25T19:36:39.500Z,25.83
2019-02-25T19:39:14.381Z,24.23
2019-02-25T19:41:47.113Z,23.37
2019-02-25T19:44:21.190Z,27.77
2019-02-25T19:46:56.160Z,20.87
2019-02-25T19:49:28.065Z,24.17
2019-02-25T19:51:59.847Z,23.43
2019-02-25T19:54:34.138Z,21.23
2019-02-25T19:57:05.223Z,24.27
2019-02-25T19:59:37.051Z,20.93
2019-02-25T20:02:08.969Z,22.90
2019-02-25T20:04:42.271Z,23.90
2019-02-25T20:07:16.026Z,27.20
2019-02-25T20:09:47.719Z,18.13
2019-02-25T20:12:20.914Z,21.40
2019-02-25T20:14:52.865Z,19.93
2019-02-25T20:17:26.571Z,23.57
2019-02-25T20:19:58.476Z,21.63
2019-02-25T20:22:32.238Z,27.33
2019-02-25T20:25:03.908Z,30.97
2019-02-25T20:27:35.672Z,25.53
2019-02-25T20:30:09.958Z,18.73
2019-02-25T20:32:42.899Z,25.13
2019-02-25T20:35:17.699Z,24.67
2019-02-25T20:37:53.015Z,17.87
2019-02-25T20:40:24.162Z,20.32
2019-02-25T20:42:58.153Z,21.17
2019-02-25T20:45:31.048Z,23.20
2019-02-25T20:48:03.289Z,21.27
2019-02-25T20:50:35.101Z,22.37
2019-02-25T20:53:09.182Z,16.97
2019-02-25T20:55:40.349Z,22.70
2019-02-25T20:58:13.963Z,22.53
2019-02-25T21:00:46.597Z,21.67
2019-02-25T21:03:20.861Z,29.00
2019-02-25T21:05:52.600Z,24.10
2019-02-25T21:08:24.400Z,21.73
2019-02-25T21:10:56.236Z,19.40
2019-02-25T21:13:29.288Z,25.90
2019-02-25T21:16:02.699Z,18.53
2019-02-25T21:18:34.852Z,22.23
2019-02-25T21:21:07.705Z,15.77
2019-02-25T21:23:39.987Z,18.63
2019-02-25T21:26:11.803Z,20.23
2019-02-25T21:28:43.546Z,23.33
2019-02-25T21:31:17.357Z,32.93
2019-02-25T21:33:50.101Z,19.80
2019-02-25T21:36:22.324Z,16.63
2019-02-25T21:38:55.985Z,18.90
2019-02-25T21:41:27.577Z,23.03
2019-02-25T21:43:59.357Z,22.07
2019-02-25T21:46:31.693Z,18.03
2019-02-25T21:49:06.611Z,22.90
2019-02-25T21:51:39.260Z,19.77
2019-02-25T21:54:11.498Z,33.10
2019-02-25T21:56:43.314Z,24.40
2019-02-25T21:59:17.168Z,26.90
2019-02-25T22:01:48.477Z,21.47
2019-02-25T22:04:20.824Z,20.63
2019-02-25T22:06:55.667Z,20.43
2019-02-25T22:09:36.050Z,19.53
2019-02-25T22:12:00.543Z,17.40
2019-02-25T22:14:32.369Z,19.10
2019-02-25T22:17:04.139Z,21.70
2019-02-25T22:19:37.478Z,18.20
2019-02-25T22:22:09.316Z,23.57
2019-02-25T22:24:41.122Z,24.07
2019-02-25T22:27:14.146Z,25.70
2019-02-25T22:29:46.271Z,21.50
2019-02-25T22:32:18.093Z,39.57
2019-02-25T22:34:49.933Z,25.40
2019-02-25T22:37:22.812Z,27.27
2019-02-25T22:39:55.155Z,22.07
2019-02-25T22:42:27.424Z,24.70
2019-02-25T22:45:00.415Z,22.57
2019-02-25T22:47:32.208Z,20.63
2019-02-25T22:50:04.730Z,20.23
2019-02-25T22:52:37.618Z,24.60
2019-02-25T22:55:10.538Z,22.97
2019-02-25T22:57:45.662Z,23.00
2019-02-25T23:00:43.292Z,24.53
2019-02-25T23:03:17.327Z,25.43
2019-02-25T23:05:50.341Z,25.03
2019-02-25T23:08:25.394Z,28.13
2019-02-25T23:10:55.384Z,23.50
2019-02-25T23:13:28.088Z,22.13
2019-02-25T23:16:00.546Z,30.47
2019-02-25T23:18:32.264Z,28.37
2019-02-25T23:21:03.961Z,20.13
2019-02-25T23:23:37.488Z,22.47
2019-02-25T23:26:10.428Z,21.00
2019-02-25T23:28:42.648Z,29.90
2019-02-25T23:31:15.035Z,23.93
2019-02-25T23:33:48.883Z,23.57
2019-02-25T23:36:21.803Z,24.00
2019-02-25T23:38:54.960Z,27.10
2019-02-25T23:41:31.857Z,25.20
2019-02-25T23:44:00.636Z,31.70
2019-02-25T23:46:34.483Z,27.63
2019-02-25T23:49:05.772Z,23.03
2019-02-25T23:51:39.376Z,24.23
2019-02-25T23:54:16.062Z,23.57
2019-02-25T23:56:48.017Z,21.93
2019-02-25T23:59:24.194Z,21.37
